Time;durP1;ratioP1;P1;durP2;ratioP2;P2;SDS_P1;SDS_P2;PMS_P1;PMS_P2;Temp;Humidity;BMP_temperature;BMP_pressure;BME280_temperature;BME280_humidity;BME280_pressure;Samples;Min_cycle;Max_cycle;Signal;HPM_P1;HPM_P2
2021/07/27 00:00:11;;;;;;;2.45;0.77;;;25.60;46.80;;;;;;4327255;33;20079;-36
2021/07/27 00:02:37;;;;;;;3.95;1.30;;;25.70;46.80;;;;;;4326746;33;20078;-38
2021/07/27 00:05:04;;;;;;;3.33;0.70;;;25.70;46.60;;;;;;4327212;33;20110;-37
2021/07/27 00:07:31;;;;;;;2.50;1.00;;;25.80;46.40;;;;;;4327252;33;20472;-36
2021/07/27 00:09:57;;;;;;;2.85;0.90;;;25.90;46.40;;;;;;4315013;33;20079;-36
2021/07/27 00:12:24;;;;;;;2.65;0.70;;;25.90;46.20;;;;;;4326762;33;20181;-36
2021/07/27 00:14:50;;;;;;;2.10;0.70;;;26.00;45.90;;;;;;4326855;33;20548;-37
2021/07/27 00:17:17;;;;;;;1.20;0.70;;;26.00;45.60;;;;;;4314276;33;20530;-37
2021/07/27 00:19:43;;;;;;;2.70;0.75;;;26.10;45.60;;;;;;4314615;33;20118;-37
2021/07/27 00:22:10;;;;;;;2.78;0.95;;;26.00;45.60;;;;;;4326707;33;20147;-37
2021/07/27 00:24:36;;;;;;;1.10;0.70;;;26.00;46.30;;;;;;4332423;32;20054;-36
2021/07/27 00:27:03;;;;;;;3.78;1.00;;;26.10;45.70;;;;;;4345093;32;20094;-37
2021/07/27 00:29:29;;;;;;;1.87;0.77;;;26.10;45.70;;;;;;4359138;32;20070;-36
2021/07/27 00:31:55;;;;;;;3.83;0.60;;;26.10;45.60;;;;;;4358811;32;20106;-37
2021/07/27 00:34:22;;;;;;;4.10;0.82;;;26.20;45.70;;;;;;4358617;32;20470;-37
2021/07/27 00:36:48;;;;;;;2.42;0.60;;;26.20;45.60;;;;;;4358735;32;20063;-37
2021/07/27 00:39:15;;;;;;;2.62;1.00;;;26.20;45.50;;;;;;4344827;32;20583;-36
2021/07/27 00:41:41;;;;;;;3.37;0.85;;;26.30;45.40;;;;;;4358372;32;20541;-38
2021/07/27 00:44:07;;;;;;;0.98;0.62;;;26.30;45.40;;;;;;4358263;32;20550;-36
2021/07/27 00:46:34;;;;;;;3.50;0.90;;;26.20;45.30;;;;;;4344785;32;20066;-36
2021/07/27 00:49:01;;;;;;;1.30;0.80;;;26.10;45.40;;;;;;4358841;32;20090;-36
2021/07/27 00:51:28;;;;;;;3.35;0.80;;;26.00;45.60;;;;;;4344184;32;20547;-36
2021/07/27 00:53:55;;;;;;;2.10;0.70;;;25.80;45.80;;;;;;4358449;32;20522;-36
2021/07/27 00:56:22;;;;;;;2.92;0.90;;;25.70;46.00;;;;;;4358279;32;20131;-36
2021/07/27 00:58:48;;;;;;;3.85;0.68;;;25.60;46.30;;;;;;4329623;33;20515;-37
2021/07/27 01:01:15;;;;;;;2.55;0.80;;;25.50;46.40;;;;;;4329694;33;20114;-36
2021/07/27 01:03:41;;;;;;;2.70;0.80;;;25.50;46.30;;;;;;4329890;33;20083;-35
2021/07/27 01:06:07;;;;;;;3.15;0.80;;;25.50;46.30;;;;;;4329489;33;20063;-36
2021/07/27 01:08:34;;;;;;;4.93;1.25;;;25.50;46.30;;;;;;4343478;33;20583;-36
2021/07/27 01:11:00;;;;;;;3.75;0.90;;;25.50;46.20;;;;;;4343016;33;20089;-36
2021/07/27 01:13:27;;;;;;;6.45;1.83;;;25.60;46.20;;;;;;4329378;33;20101;-36
2021/07/27 01:15:56;;;;;;;2.87;0.85;;;25.60;46.00;;;;;;4343184;33;20063;-36
2021/07/27 01:18:27;;;;;;;5.85;1.23;;;25.60;45.70;;;;;;4329966;33;20074;-36
2021/07/27 01:40:00;;;;;;;1.90;0.77;;;25.30;44.90;;;;;;4347855;33;19994;-37
2021/07/27 01:42:26;;;;;;;5.32;0.90;;;25.30;44.90;;;;;;4334368;33;20062;-37
2021/07/27 01:44:53;;;;;;;8.02;1.15;;;25.30;45.10;;;;;;4334072;33;20058;-36
2021/07/27 01:47:22;;;;;;;4.25;1.00;;;25.30;45.10;;;;;;4347637;33;20066;-37
2021/07/27 01:49:49;;;;;;;5.93;1.00;;;25.30;44.70;;;;;;4347543;33;20071;-36
2021/07/27 01:52:16;;;;;;;2.90;1.00;;;25.40;44.70;;;;;;4347944;33;20088;-36
2021/07/27 01:54:53;;;;;;;3.33;0.80;;;25.50;44.40;;;;;;4347923;33;20081;-36
2021/07/27 01:57:20;;;;;;;1.87;0.90;;;25.60;44.20;;;;;;4347599;33;20145;-36
2021/07/27 02:00:02;;;;;;;1.87;1.02;;;25.70;44.10;;;;;;4322228;33;20148;-36
2021/07/27 02:02:28;;;;;;;2.03;0.88;;;25.80;43.10;;;;;;4347594;33;20147;-36
2021/07/27 02:04:55;;;;;;;7.07;1.17;;;25.90;42.60;;;;;;4334114;33;20160;-37
2021/07/27 02:07:21;;;;;;;6.87;0.70;;;26.00;42.00;;;;;;4334010;33;20138;-37
2021/07/27 02:09:50;;;;;;;1.05;0.75;;;26.00;42.30;;;;;;4348037;33;20055;-37
2021/07/27 02:12:22;;;;;;;3.28;0.80;;;26.00;41.20;;;;;;4334060;33;20225;-37
2021/07/27 02:15:06;;;;;;;3.12;0.75;;;26.00;41.10;;;;;;4347704;33;20095;-37
2021/07/27 02:17:33;;;;;;;2.10;0.80;;;26.00;40.90;;;;;;4335936;33;20057;-37
2021/07/27 02:20:00;;;;;;;7.03;0.88;;;26.00;41.00;;;;;;4333952;33;20139;-37
2021/07/27 02:22:27;;;;;;;4.68;0.70;;;26.00;40.90;;;;;;4334385;33;20144;-37
2021/07/27 02:24:53;;;;;;;1.12;0.80;;;26.00;40.90;;;;;;4334088;33;20054;-37
2021/07/27 02:27:20;;;;;;;3.12;0.70;;;26.00;40.60;;;;;;4333668;33;20545;-36
2021/07/27 02:29:46;;;;;;;1.92;0.77;;;25.90;40.40;;;;;;4347786;33;20067;-37
2021/07/27 02:32:13;;;;;;;4.03;0.90;;;25.80;40.70;;;;;;4347877;33;20110;-36
2021/07/27 02:34:39;;;;;;;1.95;0.98;;;25.80;40.70;;;;;;4347512;33;20153;-37
2021/07/27 02:37:05;;;;;;;4.10;0.70;;;25.70;41.00;;;;;;4303390;33;20107;-37
2021/07/27 02:39:35;;;;;;;3.90;1.12;;;25.70;41.10;;;;;;4303460;33;20091;-36
2021/07/27 02:42:02;;;;;;;4.95;0.80;;;25.70;41.40;;;;;;4315552;33;20102;-36
2021/07/27 02:44:29;;;;;;;8.70;0.70;;;25.80;41.60;;;;;;4283449;33;20079;-38
2021/07/27 02:46:55;;;;;;;3.95;0.80;;;25.80;41.50;;;;;;4284132;33;20064;-37
2021/07/27 02:49:21;;;;;;;2.15;0.65;;;25.90;41.60;;;;;;4284189;33;20165;-37
2021/07/27 02:51:51;;;;;;;4.25;1.23;;;25.90;41.50;;;;;;4284116;33;20147;-37
2021/07/27 02:54:18;;;;;;;11.05;1.10;;;25.90;41.60;;;;;;4283978;33;20162;-37
2021/07/27 02:56:44;;;;;;;7.10;1.37;;;26.00;41.70;;;;;;4283838;33;20151;-36
2021/07/27 02:59:10;;;;;;;7.15;1.10;;;26.10;41.70;;;;;;4284074;33;20533;-38
2021/07/27 03:01:37;;;;;;;2.35;0.70;;;26.20;41.60;;;;;;4284125;33;20083;-37
2021/07/27 03:04:03;;;;;;;3.50;1.02;;;26.30;41.40;;;;;;4284111;33;20095;-37
2021/07/27 03:06:31;;;;;;;3.58;0.93;;;26.40;41.50;;;;;;4283684;33;20174;-37
2021/07/27 03:11:24;;;;;;;1.92;0.85;;;26.40;41.50;;;;;;4301052;33;20170;-38
2021/07/27 03:13:53;;;;;;;3.12;0.70;;;26.50;41.20;;;;;;4288545;33;20114;-38
2021/07/27 03:16:22;;;;;;;6.15;0.80;;;26.60;41.00;;;;;;4300568;33;20449;-38
2021/07/27 03:18:49;;;;;;;3.17;0.88;;;26.70;41.10;;;;;;4301028;33;20230;-37
2021/07/27 03:21:17;;;;;;;6.53;1.10;;;26.80;41.00;;;;;;4323244;32;20101;-38
2021/07/27 03:23:45;;;;;;;4.60;0.85;;;26.80;40.80;;;;;;4345546;32;20490;-37
2021/07/27 03:26:12;;;;;;;3.12;0.70;;;26.90;40.80;;;;;;4360009;32;20156;-38
2021/07/27 03:28:40;;;;;;;5.72;1.00;;;27.00;40.10;;;;;;4345875;32;20089;-38
2021/07/27 03:31:07;;;;;;;2.20;0.80;;;27.10;40.10;;;;;;4359407;32;20077;-38
2021/07/27 03:33:33;;;;;;;1.85;0.90;;;27.20;39.80;;;;;;4345649;32;20076;-38
2021/07/27 03:36:00;;;;;;;1.85;0.90;;;27.30;39.50;;;;;;4359463;32;20225;-37
2021/07/27 03:38:26;;;;;;;4.55;1.83;;;27.30;39.40;;;;;;4345486;32;20129;-37
2021/07/27 03:41:01;;;;;;;1.85;0.73;;;27.40;39.50;;;;;;4345488;32;20054;-38
2021/07/27 03:43:28;;;;;;;1.80;0.77;;;27.50;39.30;;;;;;4346473;32;20058;-43
2021/07/27 03:45:54;;;;;;;1.92;0.70;;;27.50;39.10;;;;;;4345141;32;20155;-37
2021/07/27 03:48:20;;;;;;;4.43;0.73;;;27.50;39.50;;;;;;4332607;32;20103;-38
2021/07/27 03:50:47;;;;;;;3.20;0.85;;;27.50;39.60;;;;;;4359141;32;20084;-38
2021/07/27 03:53:16;;;;;;;2.87;0.82;;;27.40;39.40;;;;;;4345393;32;20677;-38
2021/07/27 03:55:43;;;;;;;1.90;0.80;;;27.30;39.20;;;;;;4359352;32;20062;-38
2021/07/27 03:58:10;;;;;;;3.37;0.80;;;27.20;39.40;;;;;;4332564;33;20060;-37
2021/07/27 04:00:36;;;;;;;5.37;1.05;;;27.20;39.60;;;;;;4327759;33;20567;-37
2021/07/27 04:03:04;;;;;;;5.47;1.23;;;27.20;39.70;;;;;;4329005;33;20073;-37
2021/07/27 04:05:34;;;;;;;1.83;1.00;;;27.20;39.60;;;;;;4329175;33;20488;-37
2021/07/27 04:08:01;;;;;;;4.35;0.90;;;27.30;39.40;;;;;;4329142;33;20119;-37
2021/07/27 04:10:27;;;;;;;3.78;0.70;;;27.30;39.50;;;;;;4330806;33;20055;-37
2021/07/27 04:12:54;;;;;;;3.72;0.90;;;27.30;39.40;;;;;;4299616;33;20093;-38
2021/07/27 04:15:32;;;;;;;2.90;0.93;;;27.40;39.40;;;;;;4312253;33;20055;-37
2021/07/27 04:17:59;;;;;;;8.75;1.12;;;27.40;39.50;;;;;;4297469;33;20084;-38
2021/07/27 04:20:25;;;;;;;3.83;0.95;;;27.50;39.80;;;;;;4297352;33;20234;-38
2021/07/27 04:22:52;;;;;;;1.92;0.90;;;27.50;39.80;;;;;;4297301;33;20060;-37
2021/07/27 04:25:18;;;;;;;5.00;1.15;;;27.70;39.40;;;;;;4297430;33;20122;-36
2021/07/27 04:27:45;;;;;;;4.03;0.80;;;27.80;39.20;;;;;;4297320;33;20079;-37
2021/07/27 04:30:12;;;;;;;4.18;0.95;;;27.80;39.30;;;;;;4285405;33;20599;-36
2021/07/27 04:32:39;;;;;;;3.80;1.00;;;28.00;39.10;;;;;;4297282;33;20091;-37
2021/07/27 04:35:09;;;;;;;2.20;0.90;;;28.10;38.90;;;;;;4297153;33;20090;-38
2021/07/27 04:37:36;;;;;;;2.50;0.80;;;28.20;38.90;;;;;;4253502;33;20095;-38
2021/07/27 04:40:03;;;;;;;1.90;0.80;;;28.20;38.90;;;;;;4211594;34;20538;-38
2021/07/27 04:42:29;;;;;;;3.33;0.88;;;28.30;38.80;;;;;;4211849;34;20069;-37
2021/07/27 04:44:55;;;;;;;3.45;0.80;;;28.50;39.00;;;;;;4238551;33;20124;-37
2021/07/27 04:47:22;;;;;;;5.82;1.10;;;28.50;39.00;;;;;;4253467;33;20065;-37
2021/07/27 04:49:49;;;;;;;3.62;1.05;;;28.60;39.20;;;;;;4265632;33;20454;-37
2021/07/27 04:52:20;;;;;;;5.90;1.33;;;28.70;39.40;;;;;;4268490;33;20064;-38
2021/07/27 04:54:55;;;;;;;7.07;0.98;;;28.90;39.60;;;;;;4268517;33;20694;-37
2021/07/27 04:57:22;;;;;;;3.95;1.00;;;29.10;39.30;;;;;;4267914;33;20068;-38
2021/07/27 04:59:48;;;;;;;3.25;0.98;;;29.40;38.30;;;;;;4268763;33;20072;-38
2021/07/27 05:02:15;;;;;;;5.87;1.00;;;29.50;37.30;;;;;;4268097;33;20545;-38
2021/07/27 05:04:46;;;;;;;2.95;0.80;;;29.60;37.70;;;;;;4253557;33;20645;-37
2021/07/27 05:07:12;;;;;;;2.65;0.90;;;29.70;37.40;;;;;;4253115;33;20573;-37
2021/07/27 05:09:39;;;;;;;6.32;0.98;;;29.80;37.10;;;;;;4265491;33;20585;-38
2021/07/27 05:12:06;;;;;;;2.65;1.00;;;29.90;37.30;;;;;;4267623;33;20107;-37
2021/07/27 05:14:33;;;;;;;5.30;1.10;;;30.00;36.40;;;;;;4256174;33;20232;-38
2021/07/27 05:17:12;;;;;;;5.60;0.98;;;30.10;36.60;;;;;;4280480;33;20159;-38
2021/07/27 05:19:53;;;;;;;4.43;0.95;;;30.10;36.50;;;;;;4311441;33;20078;-38
2021/07/27 05:22:21;;;;;;;4.47;1.05;;;30.30;35.80;;;;;;4311580;33;20083;-37
2021/07/27 05:24:47;;;;;;;6.47;1.10;;;30.40;36.50;;;;;;4299196;33;20170;-38
2021/07/27 05:27:14;;;;;;;3.70;0.90;;;30.60;36.50;;;;;;4310786;33;20492;-38
2021/07/27 05:29:40;;;;;;;1.20;0.65;;;30.80;35.80;;;;;;4310856;33;20547;-38
2021/07/27 05:32:07;;;;;;;2.40;0.73;;;31.00;35.70;;;;;;4310900;33;20637;-38
2021/07/27 05:34:33;;;;;;;2.87;0.90;;;31.20;34.90;;;;;;4311805;33;20153;-38
2021/07/27 05:37:00;;;;;;;4.25;0.90;;;31.30;34.70;;;;;;4325485;33;20098;-38
2021/07/27 05:39:26;;;;;;;4.50;0.70;;;31.50;32.80;;;;;;4325554;33;20087;-38
2021/07/27 05:41:53;;;;;;;2.95;0.90;;;31.60;30.40;;;;;;4325484;33;20103;-38
2021/07/27 05:44:24;;;;;;;2.65;0.60;;;31.70;31.50;;;;;;4325991;33;20153;-38
2021/07/27 05:46:53;;;;;;;2.92;0.73;;;31.90;31.40;;;;;;4332378;33;20075;-39
2021/07/27 05:49:20;;;;;;;5.20;1.60;;;32.10;32.90;;;;;;4311064;33;20067;-39
2021/07/27 05:51:48;;;;;;;2.97;0.85;;;32.30;33.30;;;;;;4311496;33;20090;-38
2021/07/27 05:54:18;;;;;;;3.08;0.80;;;32.60;33.10;;;;;;4311203;33;20072;-38
2021/07/27 05:56:47;;;;;;;4.82;1.40;;;32.80;32.90;;;;;;4312245;33;20068;-39
2021/07/27 05:59:15;;;;;;;1.52;1.10;;;33.20;32.50;;;;;;4313428;33;20067;-38
2021/07/27 06:01:42;;;;;;;7.45;1.00;;;33.60;32.10;;;;;;4325614;33;20197;-38
2021/07/27 06:04:09;;;;;;;5.75;1.25;;;34.00;31.80;;;;;;4325828;33;20160;-38
2021/07/27 06:06:35;;;;;;;1.73;0.90;;;34.30;31.60;;;;;;4325879;33;20087;-37
2021/07/27 06:09:06;;;;;;;6.18;0.90;;;34.70;31.20;;;;;;4325488;33;20147;-38
2021/07/27 06:11:36;;;;;;;6.68;0.93;;;35.10;30.80;;;;;;4313521;33;20090;-37
2021/07/27 06:14:04;;;;;;;3.10;0.60;;;35.50;30.40;;;;;;4325496;33;20085;-37
2021/07/27 06:16:37;;;;;;;1.67;0.65;;;35.90;30.00;;;;;;4313997;33;20227;-39
2021/07/27 06:19:05;;;;;;;3.17;0.80;;;36.30;28.70;;;;;;4328600;33;20089;-38
2021/07/27 06:21:32;;;;;;;2.05;0.80;;;36.40;28.20;;;;;;4315931;33;20067;-38
2021/07/27 06:23:59;;;;;;;1.65;0.60;;;36.30;27.90;;;;;;4327879;33;20087;-38
2021/07/27 06:26:25;;;;;;;2.65;0.80;;;35.90;28.20;;;;;;4321476;33;20070;-37
2021/07/27 06:28:51;;;;;;;1.42;0.60;;;35.50;28.50;;;;;;4313581;33;20083;-38
2021/07/27 06:31:18;;;;;;;5.20;0.73;;;35.30;28.70;;;;;;4313424;33;20090;-37
2021/07/27 06:33:45;;;;;;;4.07;0.60;;;35.20;28.30;;;;;;4289255;33;20083;-37
2021/07/27 06:36:12;;;;;;;3.67;0.77;;;35.40;26.90;;;;;;4312912;33;20071;-38
2021/07/27 06:38:39;;;;;;;2.78;0.70;;;35.70;27.20;;;;;;4313411;33;20514;-37
2021/07/27 06:41:07;;;;;;;4.20;1.05;;;36.10;27.40;;;;;;4301117;33;20094;-38
2021/07/27 06:43:34;;;;;;;1.87;0.80;;;36.40;26.10;;;;;;4313566;33;20590;-37
2021/07/27 06:46:01;;;;;;;5.10;0.98;;;36.70;25.20;;;;;;4317737;33;20071;-38
2021/07/27 06:48:27;;;;;;;2.08;0.65;;;36.80;24.80;;;;;;4327429;33;20072;-38
2021/07/27 06:50:54;;;;;;;2.72;0.70;;;36.80;24.20;;;;;;4328237;33;20617;-38
2021/07/27 06:53:21;;;;;;;4.03;0.80;;;36.70;23.90;;;;;;4327541;33;20655;-39
2021/07/27 06:55:47;;;;;;;4.35;0.82;;;36.40;24.20;;;;;;4312656;33;20095;-38
2021/07/27 06:58:13;;;;;;;2.20;1.00;;;36.00;24.60;;;;;;4280024;33;20070;-38
2021/07/27 07:00:40;;;;;;;5.18;1.10;;;35.80;24.60;;;;;;4308437;33;20078;-38
2021/07/27 07:03:07;;;;;;;4.72;0.70;;;35.60;24.60;;;;;;4300691;33;20071;-38
2021/07/27 07:05:34;;;;;;;5.78;0.80;;;35.30;24.50;;;;;;4312959;33;20091;-38
2021/07/27 07:08:01;;;;;;;3.83;0.60;;;35.20;24.80;;;;;;4312752;33;20650;-44
2021/07/27 07:10:28;;;;;;;5.78;0.73;;;35.20;25.20;;;;;;4315831;33;20094;-37
2021/07/27 07:12:55;;;;;;;3.00;0.77;;;35.40;26.50;;;;;;4315253;33;20071;-38
2021/07/27 07:15:21;;;;;;;6.25;0.90;;;35.50;25.60;;;;;;4298246;33;20637;-38
2021/07/27 07:17:47;;;;;;;3.65;0.90;;;35.60;25.00;;;;;;4298234;33;20099;-38
2021/07/27 07:20:15;;;;;;;5.28;0.77;;;35.60;24.60;;;;;;4298373;33;20146;-39
2021/07/27 07:22:42;;;;;;;5.65;0.80;;;35.50;24.30;;;;;;4298159;33;20170;-38
2021/07/27 07:25:09;;;;;;;3.33;0.85;;;35.30;24.50;;;;;;4298107;33;20450;-38
2021/07/27 07:27:36;;;;;;;3.97;0.73;;;35.10;24.60;;;;;;4322527;33;20260;-37
2021/07/27 07:30:02;;;;;;;1.35;0.60;;;35.00;24.90;;;;;;4326847;33;20067;-37
2021/07/27 07:32:29;;;;;;;1.67;0.60;;;34.90;26.20;;;;;;4327391;33;20075;-38
2021/07/27 07:34:55;;;;;;;5.35;1.12;;;34.80;25.00;;;;;;4327237;33;20066;-37
2021/07/27 07:37:21;;;;;;;2.55;0.60;;;34.70;25.20;;;;;;4327089;33;20100;-38
2021/07/27 07:39:48;;;;;;;1.83;0.70;;;34.60;26.50;;;;;;4327029;33;20214;-38
2021/07/27 07:42:14;;;;;;;3.03;0.60;;;34.40;26.30;;;;;;4327340;33;20122;-38
2021/07/27 07:44:41;;;;;;;3.47;0.75;;;34.30;26.40;;;;;;4326888;33;20066;-37
2021/07/27 07:47:07;;;;;;;2.55;0.70;;;34.20;26.80;;;;;;4339676;33;20072;-39
2021/07/27 07:49:33;;;;;;;3.85;0.80;;;34.10;26.90;;;;;;4343999;32;20057;-39
2021/07/27 07:52:01;;;;;;;1.30;0.50;;;34.00;27.20;;;;;;4342464;33;20535;-36
2021/07/27 07:54:30;;;;;;;1.30;0.98;;;34.00;27.10;;;;;;4344070;32;20176;-39
2021/07/27 07:56:57;;;;;;;2.00;0.80;;;34.00;27.30;;;;;;4341502;32;20074;-38
2021/07/27 07:59:24;;;;;;;1.23;0.70;;;33.90;26.50;;;;;;4329308;33;20086;-39
2021/07/27 08:01:55;;;;;;;4.53;0.70;;;33.80;26.20;;;;;;4329288;33;20082;-39
2021/07/27 08:04:22;;;;;;;3.22;0.70;;;33.70;26.90;;;;;;4329346;33;20086;-37
2021/07/27 08:06:49;;;;;;;1.17;0.60;;;33.90;26.20;;;;;;4329475;33;20086;-38
2021/07/27 08:09:15;;;;;;;4.62;0.77;;;34.00;26.00;;;;;;4329240;33;20067;-38
2021/07/27 08:11:41;;;;;;;1.98;0.77;;;34.00;26.10;;;;;;4339398;33;20078;-38
2021/07/27 08:14:08;;;;;;;2.25;0.60;;;34.00;25.80;;;;;;4343854;33;20059;-38
2021/07/27 08:16:37;;;;;;;1.45;0.70;;;34.00;26.80;;;;;;4343992;33;20571;-38
2021/07/27 08:19:04;;;;;;;2.67;0.80;;;34.10;26.60;;;;;;4343697;33;20148;-38
2021/07/27 08:21:31;;;;;;;2.83;0.80;;;34.20;26.60;;;;;;4330307;33;20581;-38
2021/07/27 08:23:57;;;;;;;4.93;0.82;;;34.30;26.40;;;;;;4344120;33;20071;-39
2021/07/27 08:26:23;;;;;;;3.35;0.70;;;34.40;26.30;;;;;;4343701;33;20134;-37
2021/07/27 08:28:50;;;;;;;8.48;0.70;;;34.40;26.10;;;;;;4329888;33;20074;-38
2021/07/27 08:31:17;;;;;;;3.37;1.30;;;34.40;26.80;;;;;;4343243;33;20562;-39
2021/07/27 08:33:43;;;;;;;1.12;0.73;;;34.40;25.70;;;;;;4329812;33;20591;-39
2021/07/27 08:36:10;;;;;;;1.27;0.70;;;34.20;25.90;;;;;;4343302;33;20162;-38
2021/07/27 08:38:36;;;;;;;3.35;0.70;;;34.20;26.20;;;;;;4343604;33;20055;-38
2021/07/27 08:41:04;;;;;;;5.78;0.65;;;34.10;26.70;;;;;;4329433;33;20056;-37
2021/07/27 08:43:31;;;;;;;0.90;0.70;;;34.10;26.10;;;;;;4343478;33;20062;-38
2021/07/27 08:45:57;;;;;;;1.23;0.60;;;34.00;26.40;;;;;;4344000;33;20155;-39
2021/07/27 08:48:24;;;;;;;1.50;0.90;;;33.90;27.20;;;;;;4329687;33;20068;-38
2021/07/27 08:50:50;;;;;;;3.00;0.70;;;33.90;28.50;;;;;;4343209;33;20530;-38
2021/07/27 08:53:17;;;;;;;2.67;0.80;;;34.00;27.80;;;;;;4343169;33;20066;-37
2021/07/27 08:55:43;;;;;;;2.15;0.75;;;34.20;26.60;;;;;;4317441;33;20063;-37
2021/07/27 08:58:10;;;;;;;2.10;0.60;;;34.20;26.30;;;;;;4343643;33;20066;-38
2021/07/27 09:00:36;;;;;;;1.60;0.70;;;34.30;27.50;;;;;;4341741;33;20066;-37
2021/07/27 09:03:10;;;;;;;1.65;0.75;;;34.40;27.10;;;;;;4342871;33;20074;-38
2021/07/27 09:05:38;;;;;;;2.72;0.70;;;34.60;27.10;;;;;;4343429;32;20151;-38
2021/07/27 09:08:09;;;;;;;2.60;0.68;;;34.60;26.30;;;;;;4341959;33;20134;-37
2021/07/27 09:10:40;;;;;;;2.10;0.90;;;34.50;25.60;;;;;;4346905;32;20439;-38
2021/07/27 09:13:08;;;;;;;3.78;0.70;;;34.40;27.10;;;;;;4358180;32;20079;-38
2021/07/27 09:15:40;;;;;;;2.60;0.60;;;34.40;27.60;;;;;;4357787;32;20515;-37
2021/07/27 09:18:12;;;;;;;3.30;0.80;;;34.50;27.70;;;;;;4344573;32;20170;-38
2021/07/27 09:20:51;;;;;;;4.00;0.60;;;34.50;27.30;;;;;;4358043;32;20094;-36
2021/07/27 09:23:20;;;;;;;3.83;0.70;;;34.50;27.40;;;;;;4357702;32;20492;-38
2021/07/27 09:25:54;;;;;;;4.57;0.70;;;34.60;27.80;;;;;;4357925;32;20086;-37
2021/07/27 09:28:21;;;;;;;;;;;34.70;26.50;;;;;;4358389;32;20514;-38
2021/07/27 09:30:48;;;;;;;4.70;0.80;;;34.70;25.50;;;;;;4344303;32;19950;-38
2021/07/27 09:33:17;;;;;;;3.83;0.70;;;34.70;25.80;;;;;;4357943;32;20153;-37
2021/07/27 09:35:44;;;;;;;3.95;0.80;;;34.60;26.20;;;;;;4358047;32;20077;-38
2021/07/27 09:38:14;;;;;;;3.62;0.62;;;34.60;25.90;;;;;;4357944;32;20596;-37
2021/07/27 09:40:56;;;;;;;3.10;0.60;;;34.50;25.30;;;;;;4357886;32;20166;-38
2021/07/27 09:43:26;;;;;;;6.57;1.05;;;34.40;25.50;;;;;;4357546;32;20066;-37
2021/07/27 09:46:00;;;;;;;1.90;0.70;;;34.50;25.60;;;;;;4343826;32;20501;-37
2021/07/27 09:48:28;;;;;;;2.58;0.70;;;34.60;25.70;;;;;;4357878;32;20067;-38
2021/07/27 09:50:56;;;;;;;1.98;0.68;;;34.70;25.50;;;;;;4343962;32;20073;-37
2021/07/27 09:53:23;;;;;;;2.85;0.60;;;34.70;25.20;;;;;;4333182;32;20130;-37
2021/07/27 09:58:27;;;;;;;3.10;0.80;;;34.80;25.40;;;;;;4460231;27;20525;-39
2021/07/27 10:01:00;;;;;;;6.93;1.42;;;34.80;25.60;;;;;;4347446;32;20165;-39
2021/07/27 10:03:54;;;;;;;1.85;0.90;;;34.80;25.40;;;;;;4360675;32;20142;-40
2021/07/27 10:06:25;;;;;;;5.97;1.10;;;34.90;25.80;;;;;;4346751;32;20082;-39
2021/07/27 10:09:00;;;;;;;1.62;0.80;;;35.00;25.70;;;;;;4347129;32;20150;-40
2021/07/27 10:11:44;;;;;;;1.33;0.70;;;34.90;25.30;;;;;;4360927;32;20506;-40
2021/07/27 10:14:15;;;;;;;4.07;1.03;;;35.00;25.30;;;;;;4360471;32;20086;-38
2021/07/27 10:16:42;;;;;;;1.12;0.60;;;35.00;25.60;;;;;;4360396;32;20067;-44
2021/07/27 10:19:16;;;;;;;4.28;0.80;;;35.10;25.90;;;;;;4346608;32;20171;-42
2021/07/27 10:21:43;;;;;;;2.72;0.75;;;35.20;26.00;;;;;;4360471;32;20057;-40
2021/07/27 10:24:14;;;;;;;5.90;0.60;;;35.20;25.80;;;;;;4360001;32;20497;-38
2021/07/27 10:26:41;;;;;;;2.92;0.90;;;35.30;26.20;;;;;;4360864;32;20169;-40
2021/07/27 10:29:08;;;;;;;1.70;0.70;;;35.40;24.90;;;;;;4360642;32;20454;-39
2021/07/27 10:31:36;;;;;;;3.72;1.05;;;35.40;23.80;;;;;;4346748;32;20067;-40
2021/07/27 10:34:07;;;;;;;1.92;0.73;;;35.30;23.30;;;;;;4360696;32;20075;-40
2021/07/27 10:36:39;;;;;;;1.90;0.70;;;35.20;23.30;;;;;;4360397;32;20435;-40
2021/07/27 10:39:17;;;;;;;1.60;0.57;;;35.10;23.70;;;;;;4360238;32;20108;-40
2021/07/27 10:41:49;;;;;;;4.30;0.98;;;35.10;24.40;;;;;;4359910;32;20453;-40
2021/07/27 10:44:23;;;;;;;2.28;0.70;;;35.00;24.70;;;;;;4360088;32;20610;-40
2021/07/27 10:46:51;;;;;;;1.55;0.90;;;34.90;24.50;;;;;;4360140;32;20074;-39
2021/07/27 10:49:25;;;;;;;5.93;0.60;;;34.80;24.30;;;;;;4360123;32;20090;-40
2021/07/27 10:51:58;;;;;;;;;;;34.90;24.70;;;;;;4359776;32;20073;-40
2021/07/27 10:54:32;;;;;;;2.00;0.80;;;35.00;24.80;;;;;;4360124;32;20034;-39
2021/07/27 10:57:07;;;;;;;4.80;1.25;;;35.20;24.90;;;;;;4359901;32;20108;-40
2021/07/27 10:59:35;;;;;;;2.72;0.77;;;35.40;24.70;;;;;;4346475;32;20058;-40
2021/07/27 11:02:12;;;;;;;3.65;0.60;;;35.40;24.20;;;;;;4359991;32;20164;-40
2021/07/27 11:04:39;;;;;;;3.72;0.70;;;35.50;23.90;;;;;;4359293;32;20521;-39
2021/07/27 11:07:13;;;;;;;4.80;0.70;;;35.40;24.00;;;;;;4360135;32;20457;-40
2021/07/27 11:09:51;;;;;;;3.05;0.70;;;35.40;24.70;;;;;;4360048;32;20089;-39
2021/07/27 11:12:36;;;;;;;2.70;0.77;;;35.40;24.60;;;;;;4359908;32;20080;-40
2021/07/27 11:15:22;;;;;;;1.70;0.52;;;35.40;24.10;;;;;;4359960;32;20149;-40
2021/07/27 11:18:00;;;;;;;2.03;0.90;;;35.40;24.50;;;;;;4359932;32;20149;-38
2021/07/27 11:20:36;;;;;;;2.15;0.95;;;35.40;24.50;;;;;;4359661;32;20082;-40
2021/07/27 11:23:13;;;;;;;1.80;0.70;;;35.40;25.00;;;;;;4359809;32;20066;-39
2021/07/27 11:25:40;;;;;;;2.33;0.90;;;35.40;25.20;;;;;;4346180;32;20089;-39
2021/07/27 11:28:14;;;;;;;4.65;0.73;;;35.40;25.30;;;;;;4345644;32;20435;-40
2021/07/27 11:30:41;;;;;;;;;;;35.50;25.90;;;;;;4360005;32;20063;-39
2021/07/27 11:33:11;;;;;;;3.80;0.62;;;35.60;25.10;;;;;;4359405;32;20034;-40
2021/07/27 11:35:49;;;;;;;1.73;0.80;;;35.60;24.70;;;;;;4359723;32;20507;-39
2021/07/27 11:38:34;;;;;;;2.60;0.80;;;35.60;24.60;;;;;;4359567;32;20150;-40
2021/07/27 11:41:09;;;;;;;2.15;0.70;;;35.60;25.50;;;;;;4345520;32;20213;-39
2021/07/27 11:43:43;;;;;;;3.85;1.33;;;35.60;25.10;;;;;;4359286;32;20548;-40
2021/07/27 11:46:16;;;;;;;7.22;0.85;;;35.50;25.10;;;;;;4359329;32;20078;-40
2021/07/27 11:48:43;;;;;;;2.53;0.75;;;35.50;23.90;;;;;;4359537;32;20069;-38
2021/07/27 11:51:10;;;;;;;4.80;0.80;;;35.40;23.50;;;;;;4359416;32;20603;-39
2021/07/27 11:53:40;;;;;;;6.40;0.80;;;35.40;23.60;;;;;;4345443;32;20465;-39
2021/07/27 11:56:17;;;;;;;1.67;0.62;;;35.30;23.60;;;;;;4346206;32;20078;-40
2021/07/27 11:58:46;;;;;;;2.90;0.70;;;35.20;23.40;;;;;;4358727;32;20443;-39
2021/07/27 12:01:14;;;;;;;4.03;0.90;;;35.10;23.40;;;;;;4345525;32;20074;-39
2021/07/27 12:03:41;;;;;;;2.95;0.55;;;35.10;23.70;;;;;;4300078;33;20178;-39
2021/07/27 12:06:14;;;;;;;2.80;0.73;;;35.20;24.00;;;;;;4312542;33;20095;-40
2021/07/27 12:08:41;;;;;;;3.40;1.10;;;35.20;24.40;;;;;;4312951;33;20070;-39
2021/07/27 12:11:08;;;;;;;4.15;0.62;;;35.40;24.30;;;;;;4312282;33;20078;-39
2021/07/27 12:13:35;;;;;;;0.93;0.50;;;35.40;25.00;;;;;;4311891;33;20152;-39
2021/07/27 12:16:01;;;;;;;4.30;0.80;;;35.50;25.70;;;;;;4299798;33;20075;-39
2021/07/27 12:18:28;;;;;;;1.80;0.90;;;35.70;24.50;;;;;;4300235;33;20531;-42
2021/07/27 12:20:54;;;;;;;3.67;0.93;;;35.80;24.90;;;;;;4299757;33;20496;-39
2021/07/27 12:23:21;;;;;;;6.57;0.85;;;36.00;23.90;;;;;;4311946;33;20173;-39
2021/07/27 12:25:48;;;;;;;4.37;0.60;;;36.10;23.60;;;;;;4311839;33;20213;-40
2021/07/27 12:28:17;;;;;;;0.90;0.50;;;36.10;23.40;;;;;;4312018;33;20268;-40
2021/07/27 12:30:45;;;;;;;2.25;0.90;;;36.10;23.30;;;;;;4311804;33;20098;-38
2021/07/27 12:33:11;;;;;;;2.65;0.82;;;36.10;23.10;;;;;;4311938;33;20190;-41
2021/07/27 12:35:38;;;;;;;1.12;0.60;;;36.20;23.10;;;;;;4312218;33;20087;-39
2021/07/27 12:38:07;;;;;;;3.47;0.70;;;36.10;23.40;;;;;;4300116;33;20096;-40
2021/07/27 12:40:33;;;;;;;5.85;1.20;;;36.10;23.60;;;;;;4324055;32;20082;-39
2021/07/27 12:43:00;;;;;;;2.12;0.80;;;36.10;23.70;;;;;;4358044;32;20078;-39
2021/07/27 12:45:26;;;;;;;2.45;0.70;;;36.30;23.50;;;;;;4358647;32;20070;-39
2021/07/27 12:47:56;;;;;;;6.37;0.90;;;36.40;23.70;;;;;;4358405;32;20073;-39
2021/07/27 12:50:22;;;;;;;2.42;0.70;;;36.50;23.70;;;;;;4344163;32;20062;-40
2021/07/27 12:52:49;;;;;;;3.65;0.65;;;36.50;23.50;;;;;;4358137;32;20061;-39
2021/07/27 12:55:15;;;;;;;4.07;0.70;;;36.50;23.70;;;;;;4358366;32;20113;-40
2021/07/27 12:57:42;;;;;;;2.55;1.17;;;36.50;23.80;;;;;;4344583;32;20104;-40
2021/07/27 13:00:09;;;;;;;3.72;0.60;;;36.40;23.90;;;;;;4344218;32;20106;-39
2021/07/27 13:02:35;;;;;;;4.75;0.70;;;36.40;23.60;;;;;;4358159;32;20078;-39
2021/07/27 13:05:02;;;;;;;2.65;0.80;;;36.30;23.60;;;;;;4357602;32;20061;-39
2021/07/27 13:07:29;;;;;;;2.90;0.60;;;36.40;23.60;;;;;;4358176;32;20477;-41
2021/07/27 13:09:57;;;;;;;5.18;1.02;;;36.50;23.50;;;;;;4356929;32;20071;-40
2021/07/27 13:12:24;;;;;;;2.92;0.65;;;36.60;23.60;;;;;;4357846;32;20046;-40
2021/07/27 13:14:50;;;;;;;1.30;0.60;;;36.50;23.50;;;;;;4356434;32;20066;-40
2021/07/27 13:17:17;;;;;;;1.98;0.70;;;36.40;23.50;;;;;;4357910;32;20062;-40